createdAt,value
2017-11-17T00:00:26.142Z,42.4
2017-11-17T00:01:27.747Z,39.9
2017-11-17T00:02:29.360Z,29.7
2017-11-17T00:03:30.969Z,29.2
2017-11-17T00:04:32.582Z,31.3
2017-11-17T00:05:34.196Z,37.2
2017-11-17T00:06:35.797Z,35.5
2017-11-17T00:07:37.405Z,43.6
2017-11-17T00:08:39.015Z,39.8
2017-11-17T00:09:40.621Z,26.6
2017-11-17T00:10:42.230Z,42.9
2017-11-17T00:11:43.846Z,36.5
2017-11-17T00:12:45.452Z,36.3
2017-11-17T00:13:47.070Z,34.9
2017-11-17T00:14:48.671Z,34.3
2017-11-17T00:15:50.285Z,40.0
2017-11-17T00:16:51.894Z,44.5
2017-11-17T00:17:54.825Z,31.0
2017-11-17T00:18:56.422Z,35.5
2017-11-17T00:19:58.037Z,31.8
2017-11-17T00:20:59.646Z,35.6
2017-11-17T00:22:01.255Z,27.2
2017-11-17T00:23:02.872Z,29.9
2017-11-17T00:24:04.476Z,37.5
2017-11-17T00:25:06.089Z,31.7
2017-11-17T00:26:07.703Z,40.4
2017-11-17T00:27:09.314Z,42.1
2017-11-17T00:28:10.921Z,35.9
2017-11-17T00:29:12.528Z,47.8
2017-11-17T00:30:14.138Z,35.0
2017-11-17T00:31:15.752Z,38.0
2017-11-17T00:32:17.364Z,43.8
2017-11-17T00:33:18.972Z,38.3
2017-11-17T00:34:20.581Z,39.8
2017-11-17T00:35:22.197Z,40.1
2017-11-17T00:36:23.808Z,37.8
2017-11-17T00:37:25.413Z,36.1
2017-11-17T00:38:27.023Z,34.5
2017-11-17T00:39:28.631Z,35.2
2017-11-17T00:40:30.247Z,42.2
2017-11-17T00:41:31.852Z,48.1
2017-11-17T00:42:33.462Z,41.6
2017-11-17T00:43:35.078Z,37.6
2017-11-17T00:44:36.687Z,42.2
2017-11-17T00:45:38.298Z,47.6
2017-11-17T00:46:39.906Z,35.4
2017-11-17T00:47:41.519Z,42.1
2017-11-17T00:48:43.128Z,36.4
2017-11-17T00:49:44.743Z,40.0
2017-11-17T00:50:46.346Z,33.8
2017-11-17T00:51:47.964Z,41.4
2017-11-17T00:52:49.568Z,38.8
2017-11-17T00:53:51.184Z,37.5
2017-11-17T00:54:52.794Z,35.0
2017-11-17T00:55:54.407Z,36.1
2017-11-17T00:56:56.021Z,49.1
2017-11-17T00:57:57.627Z,44.9
2017-11-17T00:58:59.239Z,40.3
2017-11-17T01:00:00.850Z,43.4
2017-11-17T01:01:02.454Z,45.1
2017-11-17T01:02:04.070Z,44.0
2017-11-17T01:03:05.680Z,50.9
2017-11-17T01:04:07.284Z,37.8
2017-11-17T01:05:08.895Z,48.2
2017-11-17T01:06:10.498Z,37.0
2017-11-17T01:07:12.109Z,60.8
2017-11-17T01:08:13.714Z,36.1
2017-11-17T01:09:15.329Z,39.5
2017-11-17T01:10:16.940Z,40.1
2017-11-17T01:11:18.550Z,48.0
2017-11-17T01:12:20.159Z,50.8
2017-11-17T01:13:21.764Z,40.7
2017-11-17T01:14:23.373Z,38.6
2017-11-17T01:15:24.982Z,41.8
2017-11-17T01:16:26.589Z,37.2
2017-11-17T01:17:28.205Z,44.9
2017-11-17T01:18:29.807Z,58.3
2017-11-17T01:19:31.415Z,41.4
2017-11-17T01:20:33.026Z,39.6
2017-11-17T01:21:34.635Z,36.9
2017-11-17T01:22:36.241Z,45.3
2017-11-17T01:23:37.849Z,42.5
2017-11-17T01:24:39.462Z,31.3
2017-11-17T01:25:41.071Z,42.8
2017-11-17T01:26:42.678Z,49.4
2017-11-17T01:27:44.285Z,47.0
2017-11-17T01:28:45.900Z,35.2
2017-11-17T01:29:47.505Z,38.5
2017-11-17T01:30:49.121Z,45.0
2017-11-17T01:31:50.733Z,41.4
2017-11-17T01:32:52.341Z,35.7
2017-11-17T01:33:53.947Z,42.2
2017-11-17T01:34:55.553Z,35.3
2017-11-17T01:35:57.172Z,34.1
2017-11-17T01:36:58.770Z,36.4
2017-11-17T01:38:00.383Z,42.5
2017-11-17T01:39:01.991Z,36.2
2017-11-17T01:40:03.601Z,38.3
2017-11-17T01:41:05.204Z,41.4
2017-11-17T01:42:06.814Z,39.0
2017-11-17T01:43:08.426Z,33.8
2017-11-17T01:44:10.037Z,39.8
2017-11-17T01:45:11.644Z,39.4
2017-11-17T01:46:13.257Z,34.1
2017-11-17T01:47:14.859Z,37.3
2017-11-17T01:48:16.466Z,35.9
2017-11-17T01:49:18.075Z,32.3
2017-11-17T01:50:19.688Z,30.5
2017-11-17T01:51:21.302Z,31.9
2017-11-17T01:52:22.912Z,33.9
2017-11-17T01:53:24.519Z,34.9
2017-11-17T01:54:26.126Z,35.1
2017-11-17T01:55:27.739Z,45.3
2017-11-17T01:56:29.349Z,28.2
2017-11-17T01:57:30.956Z,29.4
2017-11-17T01:58:32.563Z,34.6
2017-11-17T01:59:34.181Z,30.6
2017-11-17T02:00:35.987Z,32.9
2017-11-17T02:01:37.593Z,37.8
2017-11-17T02:02:39.203Z,39.2
2017-11-17T02:03:40.811Z,37.0
2017-11-17T02:04:42.428Z,30.8
2017-11-17T02:05:44.032Z,27.5
2017-11-17T02:06:45.642Z,29.2
2017-11-17T02:07:47.254Z,33.0
2017-11-17T02:08:48.859Z,29.2
2017-11-17T02:09:50.473Z,34.0
2017-11-17T02:10:52.081Z,40.3
2017-11-17T02:11:53.685Z,33.1
2017-11-17T02:12:55.294Z,27.4
2017-11-17T02:13:56.907Z,44.1
2017-11-17T02:14:58.521Z,22.1
2017-11-17T02:16:00.127Z,37.8
2017-11-17T02:17:01.733Z,26.6
2017-11-17T02:18:03.350Z,33.1
2017-11-17T02:19:04.958Z,42.2
2017-11-17T02:20:06.564Z,29.2
2017-11-17T02:21:08.174Z,36.0
2017-11-17T02:22:09.786Z,30.8
2017-11-17T02:23:11.395Z,22.9
2017-11-17T02:24:12.998Z,28.3
2017-11-17T02:25:14.604Z,23.9
2017-11-17T02:26:16.217Z,40.8
2017-11-17T02:27:17.821Z,28.2
2017-11-17T02:28:19.435Z,28.3
2017-11-17T02:29:21.052Z,33.5
2017-11-17T02:30:22.654Z,35.4
2017-11-17T02:31:24.266Z,34.6
2017-11-17T02:32:25.869Z,29.9
2017-11-17T02:33:27.486Z,34.9
2017-11-17T02:34:29.090Z,24.6
2017-11-17T02:35:30.708Z,25.7
2017-11-17T02:36:32.313Z,25.3
2017-11-17T02:37:33.923Z,40.6
2017-11-17T02:38:35.526Z,29.4
2017-11-17T02:39:37.139Z,28.4
2017-11-17T02:40:38.745Z,31.2
2017-11-17T02:41:40.356Z,22.8
2017-11-17T02:42:41.962Z,29.6
2017-11-17T02:43:43.570Z,34.1
2017-11-17T02:44:45.185Z,26.6
2017-11-17T02:45:46.797Z,33.8
2017-11-17T02:46:48.401Z,28.9
2017-11-17T02:47:50.012Z,28.8
2017-11-17T02:48:51.627Z,34.3
2017-11-17T02:49:53.237Z,26.4
2017-11-17T02:50:54.843Z,33.2
2017-11-17T02:51:56.450Z,27.8
2017-11-17T02:52:58.062Z,25.7
2017-11-17T02:53:59.671Z,28.8
2017-11-17T02:55:01.276Z,31.6
2017-11-17T02:56:02.884Z,26.1
2017-11-17T02:57:04.496Z,28.3
2017-11-17T02:58:06.104Z,30.4
2017-11-17T02:59:07.716Z,31.1
2017-11-17T03:00:09.325Z,22.6
2017-11-17T03:01:10.930Z,37.7
2017-11-17T03:02:12.539Z,24.6
2017-11-17T03:03:14.150Z,26.0
2017-11-17T03:04:15.761Z,22.7
2017-11-17T03:05:17.365Z,23.3
2017-11-17T03:06:18.976Z,23.9
2017-11-17T03:07:20.581Z,25.5
2017-11-17T03:08:22.185Z,34.4
2017-11-17T03:09:23.804Z,39.9
2017-11-17T03:10:25.408Z,22.6
2017-11-17T03:11:27.035Z,24.5
2017-11-17T03:12:28.623Z,27.5
2017-11-17T03:13:30.229Z,26.2
2017-11-17T03:14:31.839Z,39.4
2017-11-17T03:15:33.442Z,14.8
2017-11-17T03:16:35.050Z,23.5
2017-11-17T03:17:36.663Z,31.4
2017-11-17T03:18:38.273Z,26.5
2017-11-17T03:19:39.876Z,26.9
2017-11-17T03:20:41.481Z,21.0
2017-11-17T03:21:43.094Z,26.8
2017-11-17T03:22:44.697Z,29.9
2017-11-17T03:23:46.309Z,27.8
2017-11-17T03:24:47.914Z,22.0
2017-11-17T03:25:49.526Z,31.2
2017-11-17T03:26:51.132Z,21.8
2017-11-17T03:27:52.738Z,26.8
2017-11-17T03:28:54.342Z,21.7
2017-11-17T03:29:55.953Z,22.6
2017-11-17T03:30:57.566Z,27.2
2017-11-17T03:31:59.169Z,20.9
2017-11-17T03:33:00.775Z,48.6
2017-11-17T03:34:02.393Z,71.7
2017-11-17T03:35:03.996Z,27.0
2017-11-17T03:36:05.600Z,22.6
2017-11-17T03:37:07.206Z,34.1
2017-11-17T03:38:08.818Z,27.1
2017-11-17T03:39:10.428Z,29.1
2017-11-17T03:40:12.032Z,22.4
2017-11-17T03:41:13.646Z,19.3
2017-11-17T03:42:15.443Z,20.3
2017-11-17T03:43:17.132Z,23.4
2017-11-17T03:44:18.768Z,17.3
2017-11-17T03:45:20.447Z,29.1
2017-11-17T03:46:22.070Z,26.1
2017-11-17T03:47:23.726Z,25.2
2017-11-17T03:48:25.372Z,34.5
2017-11-17T03:49:26.982Z,21.6
2017-11-17T03:50:28.634Z,28.2
2017-11-17T03:51:30.240Z,37.3
2017-11-17T03:52:31.864Z,24.8
2017-11-17T03:53:33.461Z,35.7
2017-11-17T03:54:35.070Z,28.0
2017-11-17T03:55:36.681Z,27.6
2017-11-17T03:56:38.350Z,21.8
2017-11-17T03:57:39.968Z,23.2
2017-11-17T03:58:41.581Z,23.2
2017-11-17T03:59:43.191Z,30.1
2017-11-17T04:00:44.797Z,22.0
2017-11-17T04:01:46.404Z,17.8
2017-11-17T04:02:48.019Z,19.9
2017-11-17T04:03:49.630Z,13.5
2017-11-17T04:04:51.233Z,22.5
2017-11-17T04:05:52.834Z,28.7
2017-11-17T04:06:54.449Z,41.6
2017-11-17T04:07:56.057Z,21.6
2017-11-17T04:08:57.677Z,32.9
2017-11-17T04:09:59.293Z,20.1
2017-11-17T04:11:00.908Z,23.7
2017-11-17T04:12:02.509Z,19.1
2017-11-17T04:13:04.119Z,19.0
2017-11-17T04:14:05.728Z,14.0
2017-11-17T04:15:07.327Z,22.1
2017-11-17T04:16:08.939Z,13.3
2017-11-17T04:17:10.551Z,15.5
2017-11-17T04:18:12.161Z,15.3
2017-11-17T04:19:13.761Z,20.3
2017-11-17T04:20:15.377Z,16.1
2017-11-17T04:21:16.978Z,26.8
2017-11-17T04:22:18.591Z,22.0
2017-11-17T04:23:20.193Z,32.3
2017-11-17T04:24:21.833Z,19.6
2017-11-17T04:25:23.437Z,15.8
2017-11-17T04:26:25.044Z,23.4
2017-11-17T04:27:26.828Z,17.3
2017-11-17T04:28:29.088Z,26.3
2017-11-17T04:29:30.701Z,32.2
2017-11-17T04:30:32.309Z,24.9
2017-11-17T04:31:34.147Z,22.0
2017-11-17T04:32:35.757Z,14.3
2017-11-17T04:33:37.363Z,15.5
2017-11-17T04:34:38.967Z,17.7
2017-11-17T04:35:40.578Z,27.7
2017-11-17T04:36:42.187Z,22.6
2017-11-17T04:37:43.793Z,16.2
2017-11-17T04:38:45.399Z,21.9
2017-11-17T04:39:47.010Z,110.1
2017-11-17T04:40:48.619Z,61.3
2017-11-17T04:41:50.231Z,47.7
2017-11-17T04:42:51.849Z,17.3
2017-11-17T04:43:53.455Z,20.8
2017-11-17T04:44:55.193Z,10.6
2017-11-17T04:45:56.798Z,17.0
2017-11-17T04:46:58.406Z,15.9
2017-11-17T04:48:00.011Z,15.9
2017-11-17T04:49:01.621Z,15.7
2017-11-17T04:50:03.223Z,10.2
2017-11-17T04:51:04.841Z,12.0
2017-11-17T04:52:06.553Z,18.5
2017-11-17T04:53:08.167Z,13.8
2017-11-17T04:54:09.785Z,9.1
2017-11-17T04:55:11.389Z,24.9
2017-11-17T04:56:16.997Z,19.7
2017-11-17T04:57:21.497Z,22.9
2017-11-17T04:58:23.148Z,14.0
2017-11-17T04:59:24.739Z,15.3
2017-11-17T05:00:26.350Z,17.9
2017-11-17T05:01:27.951Z,13.0
2017-11-17T05:02:29.561Z,10.9
2017-11-17T05:03:31.170Z,17.4
2017-11-17T05:04:32.774Z,13.3
2017-11-17T05:05:34.377Z,9.6
2017-11-17T05:06:35.991Z,14.1
2017-11-17T05:07:37.600Z,9.4
2017-11-17T05:08:39.200Z,6.5
2017-11-17T05:09:40.811Z,14.4
2017-11-17T05:10:42.430Z,17.1
2017-11-17T05:11:44.037Z,17.2
2017-11-17T05:12:45.646Z,18.3
2017-11-17T05:13:47.248Z,9.2
2017-11-17T05:14:49.148Z,13.7
2017-11-17T05:15:50.747Z,8.1
2017-11-17T05:16:52.355Z,8.0
2017-11-17T05:17:53.958Z,14.8
2017-11-17T05:18:55.578Z,15.6
2017-11-17T05:19:57.222Z,16.4
2017-11-17T05:20:58.825Z,6.1
2017-11-17T05:22:00.639Z,9.7
2017-11-17T05:23:02.259Z,11.0
2017-11-17T05:24:03.866Z,12.4
2017-11-17T05:25:05.468Z,19.4
2017-11-17T05:26:07.122Z,8.4
2017-11-17T05:27:10.201Z,16.7
2017-11-17T05:28:11.866Z,9.2
2017-11-17T05:29:13.477Z,6.1
2017-11-17T05:30:15.311Z,12.3
2017-11-17T05:31:16.924Z,11.7
2017-11-17T05:32:18.534Z,11.9
2017-11-17T05:33:20.144Z,15.2
2017-11-17T05:34:21.747Z,10.3
2017-11-17T05:35:23.357Z,7.4
2017-11-17T05:36:24.962Z,13.9
2017-11-17T05:37:26.573Z,13.7
2017-11-17T05:38:28.175Z,15.1
2017-11-17T05:39:29.786Z,5.8
2017-11-17T05:40:31.389Z,20.0
2017-11-17T05:41:33.002Z,10.9
2017-11-17T05:42:34.607Z,10.5
2017-11-17T05:43:36.225Z,13.1
2017-11-17T05:44:37.825Z,9.3
2017-11-17T05:45:39.427Z,9.2
2017-11-17T05:46:41.030Z,8.8
2017-11-17T05:47:42.640Z,9.4
2017-11-17T05:48:44.248Z,21.0
2017-11-17T05:49:45.852Z,16.2
2017-11-17T05:50:47.465Z,20.3
2017-11-17T05:51:49.065Z,7.3
2017-11-17T05:52:50.678Z,19.9
2017-11-17T05:53:52.282Z,4.6
2017-11-17T05:54:53.890Z,9.6
2017-11-17T05:55:55.493Z,9.0
2017-11-17T05:56:57.108Z,13.8
2017-11-17T05:57:58.710Z,8.4
2017-11-17T05:59:00.321Z,13.9
2017-11-17T06:00:01.930Z,7.2
2017-11-17T06:01:03.539Z,13.1
2017-11-17T06:02:05.141Z,8.3
2017-11-17T06:03:06.753Z,13.5
2017-11-17T06:04:08.357Z,13.1
2017-11-17T06:05:09.969Z,13.3
2017-11-17T06:06:11.576Z,11.5
2017-11-17T06:07:13.179Z,11.7
2017-11-17T06:08:14.788Z,18.9
2017-11-17T06:09:16.403Z,11.7
2017-11-17T06:10:18.000Z,7.3
2017-11-17T06:11:19.608Z,145.3
2017-11-17T06:12:21.221Z,75.4
2017-11-17T06:13:22.828Z,21.3
2017-11-17T06:14:24.430Z,22.2
2017-11-17T06:15:26.040Z,9.0
2017-11-17T06:16:27.643Z,14.4
2017-11-17T06:17:29.254Z,13.0
2017-11-17T06:18:30.857Z,12.2
2017-11-17T06:19:32.465Z,12.7
2017-11-17T06:20:34.075Z,12.8
2017-11-17T06:21:35.684Z,7.7
2017-11-17T06:22:37.286Z,10.2
2017-11-17T06:23:38.892Z,13.8
2017-11-17T06:24:40.503Z,13.5
2017-11-17T06:25:42.110Z,23.5
2017-11-17T06:26:43.721Z,11.2
2017-11-17T06:27:45.321Z,16.3
2017-11-17T06:28:46.931Z,9.4
2017-11-17T06:29:48.534Z,20.5
2017-11-17T06:30:50.145Z,15.3
2017-11-17T06:31:51.757Z,14.5
2017-11-17T06:32:53.362Z,5.9
2017-11-17T06:33:54.969Z,11.7
2017-11-17T06:34:56.589Z,6.7
2017-11-17T06:35:58.181Z,13.6
2017-11-17T06:36:59.792Z,14.7
2017-11-17T06:38:01.397Z,14.2
2017-11-17T06:39:03.007Z,7.3
2017-11-17T06:40:04.616Z,9.6
2017-11-17T06:41:06.223Z,14.8
2017-11-17T06:42:07.837Z,12.4
2017-11-17T06:43:09.439Z,14.2
2017-11-17T06:44:11.053Z,19.3
2017-11-17T06:45:12.657Z,7.0
2017-11-17T06:46:14.274Z,12.9
2017-11-17T06:47:15.881Z,20.4
2017-11-17T06:48:17.496Z,13.9
2017-11-17T06:49:19.104Z,13.1
2017-11-17T06:50:20.713Z,10.2
2017-11-17T06:51:22.328Z,11.9
2017-11-17T06:52:23.940Z,16.3
2017-11-17T06:53:25.546Z,12.9
2017-11-17T06:54:27.165Z,11.9
2017-11-17T06:55:28.775Z,16.8
2017-11-17T06:56:30.380Z,21.2
2017-11-17T06:57:31.992Z,8.6
2017-11-17T06:58:33.603Z,13.7
2017-11-17T06:59:35.211Z,14.9
2017-11-17T07:00:36.823Z,18.7
2017-11-17T07:01:38.436Z,11.7
2017-11-17T07:02:40.051Z,12.4
2017-11-17T07:03:41.656Z,14.5
2017-11-17T07:04:43.261Z,14.7
2017-11-17T07:05:44.878Z,11.9
2017-11-17T07:06:46.485Z,16.0
2017-11-17T07:07:48.097Z,10.9
2017-11-17T07:08:49.705Z,13.8
2017-11-17T07:09:51.323Z,15.9
2017-11-17T07:10:52.924Z,17.2
2017-11-17T07:11:54.536Z,15.1
2017-11-17T07:12:56.149Z,16.3
2017-11-17T07:13:57.756Z,12.5
2017-11-17T07:14:59.362Z,9.9
2017-11-17T07:16:00.977Z,13.0
2017-11-17T07:17:02.602Z,16.4
2017-11-17T07:18:04.206Z,13.0
2017-11-17T07:19:05.813Z,15.6
2017-11-17T07:20:07.426Z,18.5
2017-11-17T07:21:09.038Z,10.7
2017-11-17T07:22:10.654Z,8.4
2017-11-17T07:23:12.267Z,10.9
2017-11-17T07:24:13.876Z,20.1
2017-11-17T07:25:15.489Z,15.6
2017-11-17T07:26:17.100Z,11.9
2017-11-17T07:27:18.714Z,10.9
2017-11-17T07:28:20.325Z,19.1
2017-11-17T07:29:21.946Z,23.5
2017-11-17T07:30:23.552Z,13.5
2017-11-17T07:31:25.169Z,12.3
2017-11-17T07:32:26.779Z,17.6
2017-11-17T07:33:28.396Z,14.7
2017-11-17T07:34:30.004Z,10.5
2017-11-17T07:35:31.620Z,12.1
2017-11-17T07:36:33.231Z,7.4
2017-11-17T07:37:34.846Z,9.4
2017-11-17T07:38:36.457Z,11.8
2017-11-17T07:39:38.067Z,17.9
2017-11-17T07:40:39.687Z,12.6
2017-11-17T07:41:41.298Z,19.2
2017-11-17T07:42:42.907Z,15.9
2017-11-17T07:43:44.518Z,12.3
2017-11-17T07:44:46.137Z,16.6
2017-11-17T07:45:47.751Z,18.7
2017-11-17T07:46:49.358Z,6.8
2017-11-17T07:47:50.971Z,18.8
2017-11-17T07:48:52.587Z,13.2
2017-11-17T07:49:54.198Z,16.8
2017-11-17T07:50:55.809Z,13.9
2017-11-17T07:51:57.422Z,8.1
2017-11-17T07:52:59.038Z,11.4
2017-11-17T07:54:00.651Z,15.9
2017-11-17T07:55:02.266Z,10.4
2017-11-17T07:56:03.870Z,8.0
2017-11-17T07:57:05.516Z,9.4
2017-11-17T07:58:07.095Z,11.9
2017-11-17T07:59:08.706Z,14.8
2017-11-17T08:00:10.319Z,21.0
2017-11-17T08:01:11.936Z,17.0
2017-11-17T08:02:13.547Z,9.4
2017-11-17T08:03:15.157Z,13.1
2017-11-17T08:04:16.769Z,11.5
2017-11-17T08:05:18.384Z,11.5
2017-11-17T08:06:20.003Z,14.6
2017-11-17T08:07:21.615Z,11.6
2017-11-17T08:08:23.226Z,10.1
2017-11-17T08:09:24.838Z,18.2
2017-11-17T08:10:26.448Z,9.7
2017-11-17T08:11:28.065Z,12.1
2017-11-17T08:12:29.676Z,20.5
2017-11-17T08:13:31.296Z,7.7
2017-11-17T08:14:32.907Z,13.8
2017-11-17T08:15:34.522Z,12.5
2017-11-17T08:16:36.133Z,10.4
2017-11-17T08:17:37.753Z,6.2
2017-11-17T08:18:39.359Z,8.9
2017-11-17T08:19:40.978Z,10.6
2017-11-17T08:20:42.588Z,10.7
2017-11-17T08:21:44.209Z,12.4
2017-11-17T08:22:45.819Z,14.5
2017-11-17T08:23:47.433Z,13.2
2017-11-17T08:24:49.045Z,19.5
2017-11-17T08:25:50.657Z,9.1
2017-11-17T08:26:52.274Z,12.6
2017-11-17T08:27:53.881Z,7.8
2017-11-17T08:28:55.500Z,7.1
2017-11-17T08:29:57.109Z,12.3
2017-11-17T08:30:58.725Z,11.0
2017-11-17T08:32:00.336Z,14.6
2017-11-17T08:33:01.954Z,5.5
2017-11-17T08:34:03.565Z,18.6
2017-11-17T08:35:05.182Z,12.2
2017-11-17T08:36:06.800Z,11.1
2017-11-17T08:37:08.413Z,18.6
2017-11-17T08:38:10.992Z,10.8
2017-11-17T08:39:12.664Z,13.8
2017-11-17T08:40:14.276Z,18.3
2017-11-17T08:41:15.891Z,9.3
2017-11-17T08:42:17.508Z,10.6
2017-11-17T08:43:19.122Z,8.8
2017-11-17T08:44:20.739Z,22.2
2017-11-17T08:45:22.357Z,3.9
2017-11-17T08:46:23.968Z,11.8
2017-11-17T08:47:26.358Z,3.9
2017-11-17T08:48:27.980Z,4.9
2017-11-17T08:49:29.593Z,6.7
2017-11-17T08:50:31.206Z,6.5
2017-11-17T08:51:32.826Z,16.8
2017-11-17T08:52:34.441Z,6.3
2017-11-17T08:53:36.052Z,7.0
2017-11-17T08:54:37.668Z,14.9
2017-11-17T08:55:39.282Z,12.1
2017-11-17T08:56:40.902Z,11.2
2017-11-17T08:57:42.527Z,6.8
2017-11-17T08:58:44.140Z,8.3
2017-11-17T08:59:45.748Z,6.1
2017-11-17T09:00:47.365Z,7.2
2017-11-17T09:01:48.985Z,5.3
2017-11-17T09:02:50.599Z,5.0
2017-11-17T09:03:52.211Z,10.5
2017-11-17T09:04:53.833Z,6.1
2017-11-17T09:05:55.451Z,8.2
2017-11-17T09:06:57.060Z,9.9
2017-11-17T09:07:58.680Z,8.4
2017-11-17T09:09:00.291Z,6.8
2017-11-17T09:10:01.906Z,11.4
2017-11-17T09:11:03.523Z,10.1
2017-11-17T09:12:05.145Z,11.8
2017-11-17T09:13:06.764Z,13.0
2017-11-17T09:14:08.378Z,15.0
2017-11-17T09:15:09.997Z,7.5
2017-11-17T09:16:11.610Z,7.4
2017-11-17T09:17:13.229Z,10.1
2017-11-17T09:18:14.845Z,11.0
2017-11-17T09:19:16.468Z,8.5
2017-11-17T09:20:18.076Z,6.4
2017-11-17T09:21:19.696Z,15.5
2017-11-17T09:22:21.311Z,10.4
2017-11-17T09:23:22.926Z,10.9
2017-11-17T09:24:24.543Z,4.2
2017-11-17T09:25:26.179Z,14.7
2017-11-17T09:26:27.789Z,8.8
2017-11-17T09:27:29.399Z,15.2
2017-11-17T09:28:31.017Z,15.5
2017-11-17T09:29:32.628Z,15.1
2017-11-17T09:30:34.250Z,8.0
2017-11-17T09:31:35.861Z,5.2
2017-11-17T09:32:37.482Z,14.3
2017-11-17T09:33:39.096Z,10.6
2017-11-17T09:34:40.715Z,8.7
2017-11-17T09:35:42.325Z,15.8
2017-11-17T09:36:43.946Z,12.9
2017-11-17T09:37:45.560Z,15.0
2017-11-17T09:38:47.179Z,9.2
2017-11-17T09:39:48.793Z,14.2
2017-11-17T09:40:50.413Z,5.6
2017-11-17T09:41:52.025Z,9.1
2017-11-17T09:42:53.645Z,10.6
2017-11-17T09:43:55.265Z,10.7
2017-11-17T09:44:56.886Z,8.4
2017-11-17T09:45:58.509Z,10.0
2017-11-17T09:47:00.133Z,13.1
2017-11-17T09:48:01.745Z,8.4
2017-11-17T09:49:03.360Z,6.5
2017-11-17T09:50:04.978Z,9.3
2017-11-17T09:51:06.599Z,11.5
2017-11-17T09:52:08.214Z,6.9
2017-11-17T09:53:09.823Z,6.8
2017-11-17T09:54:11.448Z,5.7
2017-11-17T09:55:13.068Z,10.2
2017-11-17T09:56:14.683Z,12.9
2017-11-17T09:57:16.295Z,6.9
2017-11-17T09:58:17.916Z,6.9
2017-11-17T09:59:19.542Z,4.8
2017-11-17T10:00:21.154Z,4.9
2017-11-17T10:01:22.772Z,3.8
2017-11-17T10:02:24.388Z,11.8
2017-11-17T10:03:26.006Z,8.9
2017-11-17T10:04:27.621Z,8.3
2017-11-17T10:05:29.240Z,10.4
2017-11-17T10:06:30.861Z,7.3
2017-11-17T10:07:32.481Z,13.3
2017-11-17T10:08:34.100Z,6.3
2017-11-17T10:09:35.712Z,12.6
2017-11-17T10:10:37.333Z,5.0
2017-11-17T10:11:38.950Z,14.5
2017-11-17T10:12:40.569Z,10.9
2017-11-17T10:13:42.181Z,10.9
2017-11-17T10:14:43.804Z,8.7
2017-11-17T10:15:45.425Z,7.3
2017-11-17T10:16:47.048Z,7.5
2017-11-17T10:17:48.656Z,9.7
2017-11-17T10:18:50.270Z,6.4
2017-11-17T10:19:51.892Z,6.8
2017-11-17T10:20:53.509Z,11.4
2017-11-17T10:21:55.125Z,10.8
2017-11-17T10:22:56.747Z,8.4
2017-11-17T10:23:58.365Z,9.0
2017-11-17T10:24:59.987Z,8.8
2017-11-17T10:26:01.596Z,9.3
2017-11-17T10:27:03.217Z,10.4
2017-11-17T10:28:04.830Z,11.5
2017-11-17T10:29:06.458Z,15.7
2017-11-17T10:30:08.070Z,9.1
2017-11-17T10:31:09.690Z,4.3
2017-11-17T10:32:11.303Z,7.9
2017-11-17T10:33:12.920Z,12.1
2017-11-17T10:34:14.534Z,7.1
2017-11-17T10:35:16.150Z,11.7
2017-11-17T10:36:17.769Z,18.0
2017-11-17T10:37:19.388Z,9.2
2017-11-17T10:38:21.009Z,15.8
2017-11-17T10:39:22.620Z,8.5
2017-11-17T10:40:24.235Z,17.7
2017-11-17T10:41:25.854Z,15.0
2017-11-17T10:42:27.471Z,9.7
2017-11-17T10:43:29.088Z,7.9
2017-11-17T10:44:30.701Z,13.3
2017-11-17T10:45:32.326Z,10.2
2017-11-17T10:46:33.943Z,8.6
2017-11-17T10:47:35.553Z,7.1
2017-11-17T10:48:37.169Z,7.0
2017-11-17T10:49:38.786Z,8.6
2017-11-17T10:50:40.410Z,9.8
2017-11-17T10:51:42.018Z,9.3
2017-11-17T10:52:43.632Z,3.1
2017-11-17T10:53:45.250Z,8.3
2017-11-17T10:54:46.861Z,8.3
2017-11-17T10:55:48.477Z,6.6
2017-11-17T10:56:50.093Z,1.7
2017-11-17T10:57:51.713Z,4.8
2017-11-17T10:58:53.328Z,2.7
2017-11-17T10:59:54.949Z,8.4
2017-11-17T11:00:56.558Z,6.2
2017-11-17T11:01:58.183Z,8.1
2017-11-17T11:02:59.835Z,7.3
2017-11-17T11:04:01.453Z,4.2
2017-11-17T11:05:03.077Z,5.8
2017-11-17T11:06:04.711Z,4.0
2017-11-17T11:07:06.325Z,5.0
2017-11-17T11:08:07.945Z,6.7
2017-11-17T11:09:09.560Z,7.5
2017-11-17T11:10:11.180Z,3.1
2017-11-17T11:11:12.803Z,12.9
2017-11-17T11:12:14.418Z,3.1
2017-11-17T11:13:16.044Z,6.6
2017-11-17T11:14:17.661Z,20.8
2017-11-17T11:15:19.283Z,10.9
2017-11-17T11:16:20.898Z,9.8
2017-11-17T11:17:22.518Z,5.2
2017-11-17T11:18:24.134Z,4.1
2017-11-17T11:19:25.758Z,5.4
2017-11-17T11:20:27.375Z,7.3
2017-11-17T11:21:29.004Z,7.2
2017-11-17T11:22:31.596Z,9.3
2017-11-17T11:23:33.218Z,3.3
2017-11-17T11:24:34.835Z,12.0
2017-11-17T11:25:36.463Z,9.3
2017-11-17T11:26:38.073Z,2.1
2017-11-17T11:27:39.700Z,5.5
2017-11-17T11:28:41.318Z,4.7
2017-11-17T11:29:42.941Z,5.7
2017-11-17T11:30:44.557Z,2.5
2017-11-17T11:31:46.180Z,13.0
2017-11-17T11:32:47.796Z,9.5
2017-11-17T11:33:49.413Z,7.7
2017-11-17T11:34:51.038Z,10.5
2017-11-17T11:35:52.659Z,12.1
2017-11-17T11:36:54.274Z,7.7
2017-11-17T11:37:55.889Z,3.5
2017-11-17T11:38:57.512Z,8.4
2017-11-17T11:39:59.131Z,5.8
2017-11-17T11:41:00.751Z,6.0
2017-11-17T11:42:02.371Z,7.0
2017-11-17T11:43:03.993Z,7.8
2017-11-17T11:44:05.612Z,10.8
2017-11-17T11:45:07.225Z,5.8
2017-11-17T11:46:08.842Z,5.1
2017-11-17T11:47:10.467Z,10.1
2017-11-17T11:48:12.087Z,2.2
2017-11-17T11:49:13.704Z,11.3
2017-11-17T11:50:15.809Z,5.0
2017-11-17T11:51:17.431Z,11.3
2017-11-17T11:52:19.048Z,4.4
2017-11-17T11:53:20.670Z,9.5
2017-11-17T11:54:22.291Z,5.1
2017-11-17T11:55:23.906Z,8.0
2017-11-17T11:56:25.524Z,6.5
2017-11-17T11:57:27.149Z,13.2
2017-11-17T11:58:28.773Z,8.4
2017-11-17T11:59:30.383Z,4.0
2017-11-17T12:00:31.997Z,11.4
2017-11-17T12:01:33.617Z,12.0
2017-11-17T12:02:35.234Z,5.7
2017-11-17T12:03:36.855Z,5.3
2017-11-17T12:04:38.469Z,19.1
2017-11-17T12:05:40.089Z,4.9
2017-11-17T12:06:41.704Z,14.5
2017-11-17T12:07:43.322Z,4.6
2017-11-17T12:08:44.939Z,5.3
2017-11-17T12:09:46.554Z,6.7
2017-11-17T12:10:48.173Z,10.9
2017-11-17T12:11:49.795Z,6.5
2017-11-17T12:12:51.416Z,5.0
2017-11-17T12:13:53.022Z,4.4
2017-11-17T12:14:54.639Z,13.6
2017-11-17T12:15:56.259Z,4.9
2017-11-17T12:16:57.877Z,9.7
2017-11-17T12:17:59.491Z,5.8
2017-11-17T12:19:01.115Z,8.2
2017-11-17T12:20:02.728Z,10.3
2017-11-17T12:21:04.345Z,3.7
2017-11-17T12:22:05.960Z,4.4
2017-11-17T12:23:07.581Z,11.8
2017-11-17T12:24:09.191Z,3.4
2017-11-17T12:25:10.814Z,7.3
2017-11-17T12:26:12.436Z,15.6
2017-11-17T12:27:14.046Z,7.1
2017-11-17T12:28:15.669Z,4.5
2017-11-17T12:29:17.280Z,9.1
2017-11-17T12:30:18.903Z,11.6
2017-11-17T12:31:20.517Z,8.1
2017-11-17T12:32:22.140Z,4.2
2017-11-17T12:33:23.760Z,4.4
2017-11-17T12:34:25.373Z,7.2
2017-11-17T12:35:26.986Z,2.7
2017-11-17T12:36:28.636Z,2.7
2017-11-17T12:37:30.219Z,2.9
2017-11-17T12:38:31.840Z,12.2
2017-11-17T12:39:33.456Z,4.2
2017-11-17T12:40:35.082Z,6.6
2017-11-17T12:41:36.695Z,10.8
2017-11-17T12:42:38.308Z,4.4
2017-11-17T12:43:39.930Z,11.7
2017-11-17T12:44:41.541Z,2.4
2017-11-17T12:45:43.160Z,6.9
2017-11-17T12:46:44.780Z,4.5
2017-11-17T12:47:46.400Z,10.7
2017-11-17T12:48:48.013Z,6.9
2017-11-17T12:49:49.628Z,4.6
2017-11-17T12:50:51.252Z,5.1
2017-11-17T12:51:52.865Z,1.7
2017-11-17T12:52:54.477Z,4.8
2017-11-17T12:53:56.092Z,2.6
2017-11-17T12:54:57.717Z,15.2
2017-11-17T12:55:59.336Z,9.2
2017-11-17T12:57:00.946Z,6.2
2017-11-17T12:58:02.560Z,7.5
2017-11-17T12:59:04.179Z,8.1
2017-11-17T13:00:05.801Z,3.9
2017-11-17T13:01:07.421Z,4.8
2017-11-17T13:02:09.033Z,3.8
2017-11-17T13:03:10.645Z,5.2
2017-11-17T13:04:12.267Z,9.6
2017-11-17T13:05:13.877Z,3.5
2017-11-17T13:06:15.498Z,3.4
2017-11-17T13:07:17.113Z,10.3
2017-11-17T13:08:18.729Z,7.7
2017-11-17T13:09:20.352Z,5.3
2017-11-17T13:10:21.962Z,6.8
2017-11-17T13:11:23.581Z,7.8
2017-11-17T13:12:25.194Z,5.1
2017-11-17T13:13:26.816Z,6.6
2017-11-17T13:14:28.429Z,3.3
2017-11-17T13:15:30.046Z,5.4
2017-11-17T13:16:31.661Z,7.6
2017-11-17T13:17:33.278Z,5.0
2017-11-17T13:18:34.896Z,9.7
2017-11-17T13:19:36.505Z,10.4
2017-11-17T13:20:38.121Z,9.1
2017-11-17T13:21:39.741Z,6.0
2017-11-17T13:22:41.361Z,3.4
2017-11-17T13:23:42.978Z,16.0
2017-11-17T13:24:44.617Z,6.1
2017-11-17T13:25:46.209Z,3.7
2017-11-17T13:26:47.826Z,9.9
2017-11-17T13:27:49.439Z,2.7
2017-11-17T13:28:51.068Z,4.8
2017-11-17T13:29:52.678Z,6.3
2017-11-17T13:30:54.296Z,9.8
2017-11-17T13:31:55.906Z,13.5
2017-11-17T13:32:57.522Z,8.1
2017-11-17T13:33:59.142Z,14.7
2017-11-17T13:35:00.765Z,2.8
2017-11-17T13:36:02.373Z,2.3
2017-11-17T13:37:03.995Z,12.7
2017-11-17T13:38:05.605Z,3.6
2017-11-17T13:39:07.217Z,7.0
2017-11-17T13:40:08.844Z,2.9
2017-11-17T13:41:10.453Z,4.1
2017-11-17T13:42:12.064Z,8.2
2017-11-17T13:43:13.677Z,5.7
2017-11-17T13:44:15.298Z,4.6
2017-11-17T13:45:16.917Z,5.6
2017-11-17T13:46:18.528Z,3.8
2017-11-17T13:47:20.138Z,6.6
2017-11-17T13:48:21.757Z,9.0
2017-11-17T13:49:23.374Z,5.8